Cleveland, Ohio
Traffic Map
Current Weather Conditions
Cleveland, Ohio
Overcast
Overcast
10°
Feels Like: 10°
Wind Chill: 10° Ceiling: 800
Heat Index: 10° Visibility: 7mi
Dew Point: Wind: 15mph
Humidity: 89% Direction: 20° (NNE)
Pressure: 29.78in Gusts: 0mph
Raw Report DataKBKL 051413Z 02013KT 7SM BKN008 OVC100 10/08 A2978 RMK AO2 CIG 007V011 T01000083
Traffic Incident Summary
Active as of:
Severity:
Category:
InformationThere was an issue retrieving the traffic information for this location. Please try a different location or try again shortly.
Advertisements
Track Severe Weather on mobile